sensor_id;sensor_type;location;lat;lon;timestamp;pressure;altitude;pressure_sealevel;temperature;humidity
20037;BME280;10179;42.640;23.312;2022-12-07T00:02:04;93667.59;;;9.82;57.65
20037;BME280;10179;42.640;23.312;2022-12-07T00:04:29;93681.59;;;9.94;57.77
20037;BME280;10179;42.640;23.312;2022-12-07T00:06:55;93677.94;;;9.95;57.70
20037;BME280;10179;42.640;23.312;2022-12-07T00:09:20;93323.53;;;7.67;57.49
20037;BME280;10179;42.640;23.312;2022-12-07T00:11:49;93642.81;;;9.77;57.56
20037;BME280;10179;42.640;23.312;2022-12-07T00:14:16;93679.31;;;9.97;57.67
20037;BME280;10179;42.640;23.312;2022-12-07T00:16:43;93635.97;;;9.76;57.68
20037;BME280;10179;42.640;23.312;2022-12-07T00:19:10;93665.63;;;9.95;57.66
20037;BME280;10179;42.640;23.312;2022-12-07T00:21:36;93663.22;;;9.94;57.47
20037;BME280;10179;42.640;23.312;2022-12-07T00:24:03;93661.16;;;9.96;57.69
20037;BME280;10179;42.640;23.312;2022-12-07T00:26:34;93658.34;;;9.97;57.63
20037;BME280;10179;42.640;23.312;2022-12-07T00:29:03;93661.25;;;9.89;57.44
20037;BME280;10179;42.640;23.312;2022-12-07T00:31:31;93545.53;;;9.12;57.62
20037;BME280;10179;42.640;23.312;2022-12-07T00:33:58;93480.00;;;8.64;57.67
20037;BME280;10179;42.640;23.312;2022-12-07T00:36:25;93642.09;;;9.70;57.88
20037;BME280;10179;42.640;23.312;2022-12-07T00:38:51;93610.84;;;9.50;57.78
20037;BME280;10179;42.640;23.312;2022-12-07T00:41:21;93665.69;;;9.89;57.77
20037;BME280;10179;42.640;23.312;2022-12-07T00:43:47;93659.56;;;9.95;57.79
20037;BME280;10179;42.640;23.312;2022-12-07T00:46:15;93665.84;;;9.94;57.78
20037;BME280;10179;42.640;23.312;2022-12-07T00:48:41;93664.47;;;9.91;57.51
20037;BME280;10179;42.640;23.312;2022-12-07T00:51:07;93589.75;;;9.45;57.45
20037;BME280;10179;42.640;23.312;2022-12-07T00:53:37;93377.91;;;8.02;57.62
20037;BME280;10179;42.640;23.312;2022-12-07T00:56:06;93636.44;;;9.55;57.84
20037;BME280;10179;42.640;23.312;2022-12-07T00:58:32;93671.97;;;9.69;57.99
20037;BME280;10179;42.640;23.312;2022-12-07T01:01:00;93562.97;;;9.06;58.25
20037;BME280;10179;42.640;23.312;2022-12-07T01:03:27;93631.38;;;9.53;58.09
20037;BME280;10179;42.640;23.312;2022-12-07T01:05:55;93668.41;;;9.64;58.32
20037;BME280;10179;42.640;23.312;2022-12-07T01:08:21;93660.16;;;9.78;58.32
20037;BME280;10179;42.640;23.312;2022-12-07T01:10:47;93658.31;;;9.79;58.29
20037;BME280;10179;42.640;23.312;2022-12-07T01:13:12;93551.25;;;9.09;58.15
20037;BME280;10179;42.640;23.312;2022-12-07T01:15:42;93658.84;;;9.88;58.35
20037;BME280;10179;42.640;23.312;2022-12-07T01:18:08;93616.19;;;9.62;58.01
20037;BME280;10179;42.640;23.312;2022-12-07T01:20:34;93627.53;;;9.74;58.13
20037;BME280;10179;42.640;23.312;2022-12-07T01:22:59;93641.88;;;9.90;58.12
20037;BME280;10179;42.640;23.312;2022-12-07T01:25:25;93475.78;;;8.81;57.94
20037;BME280;10179;42.640;23.312;2022-12-07T01:27:50;93646.31;;;9.90;58.09
20037;BME280;10179;42.640;23.312;2022-12-07T01:30:15;93641.06;;;9.90;58.25
20037;BME280;10179;42.640;23.312;2022-12-07T01:32:41;93591.41;;;9.58;58.10
20037;BME280;10179;42.640;23.312;2022-12-07T01:35:07;93641.06;;;9.90;58.17
20037;BME280;10179;42.640;23.312;2022-12-07T01:37:36;93643.25;;;9.93;58.00
20037;BME280;10179;42.640;23.312;2022-12-07T01:40:04;93634.56;;;9.92;58.25
20037;BME280;10179;42.640;23.312;2022-12-07T01:42:30;93535.72;;;9.26;58.13
20037;BME280;10179;42.640;23.312;2022-12-07T01:47:50;93631.38;;;9.90;58.13
20037;BME280;10179;42.640;23.312;2022-12-07T01:50:17;93567.75;;;9.46;57.92
20037;BME280;10179;42.640;23.312;2022-12-07T01:52:44;93544.31;;;9.33;58.14
20037;BME280;10179;42.640;23.312;2022-12-07T01:55:13;93638.16;;;9.98;58.03
20037;BME280;10179;42.640;23.312;2022-12-07T01:57:45;93571.03;;;9.60;58.02
20037;BME280;10179;42.640;23.312;2022-12-07T02:00:12;93588.34;;;9.79;58.03
20037;BME280;10179;42.640;23.312;2022-12-07T02:02:46;93617.06;;;10.04;57.94
20037;BME280;10179;42.640;23.312;2022-12-07T02:05:13;93516.28;;;9.33;57.88
20037;BME280;10179;42.640;23.312;2022-12-07T02:07:39;93614.53;;;9.98;57.82
20037;BME280;10179;42.640;23.312;2022-12-07T02:10:26;93556.94;;;9.73;57.92
20037;BME280;10179;42.640;23.312;2022-12-07T02:13:17;93552.00;;;9.65;57.51
20037;BME280;10179;42.640;23.312;2022-12-07T02:23:51;93628.59;;;9.85;58.09
20037;BME280;10179;42.640;23.312;2022-12-07T02:34:54;93576.13;;;9.55;57.87
20037;BME280;10179;42.640;23.312;2022-12-07T02:40:24;93617.03;;;9.74;58.15
20037;BME280;10179;42.640;23.312;2022-12-07T02:42:55;93515.00;;;9.06;58.27
20037;BME280;10179;42.640;23.312;2022-12-07T02:45:24;93584.72;;;9.44;58.19
20037;BME280;10179;42.640;23.312;2022-12-07T02:47:53;93612.09;;;9.66;57.96
20037;BME280;10179;42.640;23.312;2022-12-07T02:50:21;93605.81;;;9.67;58.28
20037;BME280;10179;42.640;23.312;2022-12-07T02:52:47;93624.78;;;9.69;58.28
20037;BME280;10179;42.640;23.312;2022-12-07T02:55:15;93608.13;;;9.75;58.47
20037;BME280;10179;42.640;23.312;2022-12-07T03:00:30;93599.00;;;9.66;57.78
20037;BME280;10179;42.640;23.312;2022-12-07T03:03:01;93606.25;;;9.64;58.15
20037;BME280;10179;42.640;23.312;2022-12-07T03:08:08;93592.94;;;9.66;58.30
20037;BME280;10179;42.640;23.312;2022-12-07T03:13:47;93580.03;;;9.64;57.95
20037;BME280;10179;42.640;23.312;2022-12-07T03:16:29;93548.00;;;9.44;58.03
20037;BME280;10179;42.640;23.312;2022-12-07T03:19:02;93580.47;;;9.61;58.12
20037;BME280;10179;42.640;23.312;2022-12-07T03:21:34;93552.97;;;9.33;58.05
20037;BME280;10179;42.640;23.312;2022-12-07T03:24:08;93591.75;;;9.62;57.92
20037;BME280;10179;42.640;23.312;2022-12-07T03:26:37;93591.19;;;9.60;58.09
20037;BME280;10179;42.640;23.312;2022-12-07T03:29:26;93585.63;;;9.68;58.23
20037;BME280;10179;42.640;23.312;2022-12-07T03:32:03;93442.09;;;8.66;58.10
20037;BME280;10179;42.640;23.312;2022-12-07T03:34:44;93521.53;;;9.15;58.15
20037;BME280;10179;42.640;23.312;2022-12-07T03:37:20;93557.78;;;9.37;57.95
20037;BME280;10179;42.640;23.312;2022-12-07T03:39:56;93587.78;;;9.59;58.08
20037;BME280;10179;42.640;23.312;2022-12-07T03:42:24;93472.88;;;8.89;58.15
20037;BME280;10179;42.640;23.312;2022-12-07T03:44:50;93521.69;;;9.20;58.05
20037;BME280;10179;42.640;23.312;2022-12-07T03:47:57;93586.00;;;9.71;57.98
20037;BME280;10179;42.640;23.312;2022-12-07T03:50:29;93583.69;;;9.63;57.90
20037;BME280;10179;42.640;23.312;2022-12-07T03:53:08;93585.28;;;9.64;57.90
20037;BME280;10179;42.640;23.312;2022-12-07T03:55:37;93583.09;;;9.61;57.92
20037;BME280;10179;42.640;23.312;2022-12-07T03:58:09;93533.34;;;9.24;57.86
20037;BME280;10179;42.640;23.312;2022-12-07T04:00:36;93539.59;;;9.42;57.83
20037;BME280;10179;42.640;23.312;2022-12-07T04:03:01;93574.59;;;9.66;57.97
20037;BME280;10179;42.640;23.312;2022-12-07T04:05:27;93575.38;;;9.66;57.83
20037;BME280;10179;42.640;23.312;2022-12-07T04:07:53;93578.81;;;9.67;57.91
20037;BME280;10179;42.640;23.312;2022-12-07T04:10:18;93556.59;;;9.51;57.66
20037;BME280;10179;42.640;23.312;2022-12-07T04:12:44;93574.59;;;9.66;57.64
20037;BME280;10179;42.640;23.312;2022-12-07T04:15:10;93579.47;;;9.62;57.60
20037;BME280;10179;42.640;23.312;2022-12-07T04:17:35;93580.47;;;9.61;57.83
20037;BME280;10179;42.640;23.312;2022-12-07T04:20:01;93560.25;;;9.50;57.84
20037;BME280;10179;42.640;23.312;2022-12-07T04:22:27;93562.44;;;9.53;57.57
20037;BME280;10179;42.640;23.312;2022-12-07T04:24:52;93543.25;;;9.41;57.44
20037;BME280;10179;42.640;23.312;2022-12-07T04:27:17;93576.69;;;9.57;57.23
20037;BME280;10179;42.640;23.312;2022-12-07T04:29:43;93540.09;;;9.32;57.54
20037;BME280;10179;42.640;23.312;2022-12-07T04:32:08;93559.53;;;9.43;57.72
20037;BME280;10179;42.640;23.312;2022-12-07T04:34:33;93565.78;;;9.42;57.83
20037;BME280;10179;42.640;23.312;2022-12-07T04:36:59;93583.41;;;9.53;57.82
20037;BME280;10179;42.640;23.312;2022-12-07T04:39:29;93552.53;;;9.37;57.75
20037;BME280;10179;42.640;23.312;2022-12-07T04:41:56;93514.13;;;9.12;57.71
20037;BME280;10179;42.640;23.312;2022-12-07T04:44:23;93514.94;;;9.13;57.68
20037;BME280;10179;42.640;23.312;2022-12-07T04:46:49;93439.47;;;8.66;57.89
20037;BME280;10179;42.640;23.312;2022-12-07T04:49:16;93550.34;;;9.33;57.60
20037;BME280;10179;42.640;23.312;2022-12-07T04:51:42;93588.66;;;9.53;57.43
20037;BME280;10179;42.640;23.312;2022-12-07T04:54:08;93573.06;;;9.40;57.60
20037;BME280;10179;42.640;23.312;2022-12-07T04:56:33;93590.69;;;9.51;57.75
20037;BME280;10179;42.640;23.312;2022-12-07T04:59:01;93561.00;;;9.39;57.63
20037;BME280;10179;42.640;23.312;2022-12-07T05:01:26;93579.03;;;9.47;57.21
20037;BME280;10179;42.640;23.312;2022-12-07T05:03:52;93528.38;;;8.98;57.41
20037;BME280;10179;42.640;23.312;2022-12-07T05:06:17;93592.00;;;9.42;57.60
20037;BME280;10179;42.640;23.312;2022-12-07T05:08:44;93586.41;;;9.38;57.58
20037;BME280;10179;42.640;23.312;2022-12-07T05:11:10;93589.81;;;9.39;57.60
20037;BME280;10179;42.640;23.312;2022-12-07T05:13:56;93393.47;;;8.15;57.52
20037;BME280;10179;42.640;23.312;2022-12-07T05:16:22;93551.25;;;9.09;57.67
20037;BME280;10179;42.640;23.312;2022-12-07T05:18:47;93598.47;;;9.39;57.80
20037;BME280;10179;42.640;23.312;2022-12-07T05:21:13;93511.63;;;8.80;57.81
20037;BME280;10179;42.640;23.312;2022-12-07T05:23:38;93602.50;;;9.42;57.82
20037;BME280;10179;42.640;23.312;2022-12-07T05:26:03;93593.84;;;9.41;57.66
20037;BME280;10179;42.640;23.312;2022-12-07T05:28:29;93558.38;;;9.20;57.90
20037;BME280;10179;42.640;23.312;2022-12-07T05:30:54;93597.69;;;9.39;57.78
20037;BME280;10179;42.640;23.312;2022-12-07T05:33:20;93592.44;;;9.39;57.83
20037;BME280;10179;42.640;23.312;2022-12-07T05:35:45;93596.88;;;9.38;57.83
20037;BME280;10179;42.640;23.312;2022-12-07T05:38:10;93589.81;;;9.39;58.02
20037;BME280;10179;42.640;23.312;2022-12-07T05:40:36;93575.69;;;9.40;57.93
20037;BME280;10179;42.640;23.312;2022-12-07T05:43:02;93505.03;;;8.96;57.76
20037;BME280;10179;42.640;23.312;2022-12-07T05:45:27;93556.19;;;9.17;57.93
20037;BME280;10179;42.640;23.312;2022-12-07T05:47:53;93546.56;;;9.11;58.03
20037;BME280;10179;42.640;23.312;2022-12-07T05:50:18;93560.34;;;9.25;58.36
20037;BME280;10179;42.640;23.312;2022-12-07T05:52:44;93541.50;;;9.16;58.35
20037;BME280;10179;42.640;23.312;2022-12-07T05:55:10;93584.41;;;9.33;58.28
20037;BME280;10179;42.640;23.312;2022-12-07T05:57:35;93562.34;;;9.23;58.38
20037;BME280;10179;42.640;23.312;2022-12-07T06:00:01;93454.31;;;8.54;58.17
20037;BME280;10179;42.640;23.312;2022-12-07T06:02:27;93538.72;;;9.11;58.51
20037;BME280;10179;42.640;23.312;2022-12-07T06:04:52;93576.13;;;9.37;58.38
20037;BME280;10179;42.640;23.312;2022-12-07T06:07:17;93584.81;;;9.37;58.42
20037;BME280;10179;42.640;23.312;2022-12-07T06:09:43;93560.19;;;9.20;58.47
20037;BME280;10179;42.640;23.312;2022-12-07T06:12:10;93585.75;;;9.43;58.61
20037;BME280;10179;42.640;23.312;2022-12-07T06:14:54;93512.94;;;9.08;58.61
20037;BME280;10179;42.640;23.312;2022-12-07T06:17:20;93580.06;;;9.46;58.49
20037;BME280;10179;42.640;23.312;2022-12-07T06:19:45;93589.50;;;9.47;58.56
20037;BME280;10179;42.640;23.312;2022-12-07T06:22:11;93587.50;;;9.49;58.49
20037;BME280;10179;42.640;23.312;2022-12-07T06:24:37;93589.31;;;9.48;58.41
20037;BME280;10179;42.640;23.312;2022-12-07T06:27:04;93547.97;;;9.14;58.33
20037;BME280;10179;42.640;23.312;2022-12-07T06:29:30;93604.69;;;9.45;58.61
20037;BME280;10179;42.640;23.312;2022-12-07T06:31:55;93468.22;;;8.73;58.79
20037;BME280;10179;42.640;23.312;2022-12-07T06:34:22;93555.03;;;9.31;58.84
20037;BME280;10179;42.640;23.312;2022-12-07T06:36:48;93595.06;;;9.57;58.84
20037;BME280;10179;42.640;23.312;2022-12-07T06:39:18;93588.56;;;9.60;58.76
20037;BME280;10179;42.640;23.312;2022-12-07T06:41:44;93594.97;;;9.64;58.75
20037;BME280;10179;42.640;23.312;2022-12-07T06:44:09;93531.94;;;9.22;58.86
20037;BME280;10179;42.640;23.312;2022-12-07T06:46:35;93532.91;;;9.27;58.80
20037;BME280;10179;42.640;23.312;2022-12-07T06:49:01;93563.31;;;9.47;58.87
20037;BME280;10179;42.640;23.312;2022-12-07T06:51:26;93591.47;;;9.70;58.75
20037;BME280;10179;42.640;23.312;2022-12-07T06:53:52;93593.31;;;9.69;58.64
20037;BME280;10179;42.640;23.312;2022-12-07T06:56:17;93564.34;;;9.46;58.63
20037;BME280;10179;42.640;23.312;2022-12-07T06:58:43;93607.22;;;9.70;58.79
20037;BME280;10179;42.640;23.312;2022-12-07T07:01:13;93602.53;;;9.72;58.84
20037;BME280;10179;42.640;23.312;2022-12-07T07:03:39;93610.19;;;9.73;58.86
20037;BME280;10179;42.640;23.312;2022-12-07T07:06:06;93586.91;;;9.65;59.03
20037;BME280;10179;42.640;23.312;2022-12-07T07:08:33;93604.88;;;9.80;58.90
20037;BME280;10179;42.640;23.312;2022-12-07T07:10:58;93600.78;;;9.84;58.88
20037;BME280;10179;42.640;23.312;2022-12-07T07:13:23;93607.97;;;9.89;58.85
20037;BME280;10179;42.640;23.312;2022-12-07T07:15:49;93496.22;;;9.27;58.78
20037;BME280;10179;42.640;23.312;2022-12-07T07:18:14;93547.66;;;9.59;58.80
20037;BME280;10179;42.640;23.312;2022-12-07T07:20:40;93601.84;;;9.95;58.82
20037;BME280;10179;42.640;23.312;2022-12-07T07:23:06;93571.41;;;9.75;58.75
20037;BME280;10179;42.640;23.312;2022-12-07T07:25:32;93608.69;;;9.96;58.86
20037;BME280;10179;42.640;23.312;2022-12-07T07:27:58;93610.31;;;9.97;58.89
20037;BME280;10179;42.640;23.312;2022-12-07T07:30:24;93612.28;;;10.01;58.84
20037;BME280;10179;42.640;23.312;2022-12-07T07:32:49;93615.44;;;10.03;58.86
20037;BME280;10179;42.640;23.312;2022-12-07T07:35:15;93597.06;;;9.92;58.75
20037;BME280;10179;42.640;23.312;2022-12-07T07:37:41;93592.69;;;9.86;58.85
20037;BME280;10179;42.640;23.312;2022-12-07T07:40:07;93502.63;;;9.31;58.66
20037;BME280;10179;42.640;23.312;2022-12-07T07:42:33;93597.19;;;9.97;58.77
20037;BME280;10179;42.640;23.312;2022-12-07T07:44:58;93608.09;;;10.12;59.00
20037;BME280;10179;42.640;23.312;2022-12-07T07:47:24;93604.44;;;10.13;58.75
20037;BME280;10179;42.640;23.312;2022-12-07T07:49:49;93574.03;;;9.94;59.00
20037;BME280;10179;42.640;23.312;2022-12-07T07:52:14;93613.59;;;10.22;58.99
20037;BME280;10179;42.640;23.312;2022-12-07T07:54:40;93599.44;;;10.23;58.88
20037;BME280;10179;42.640;23.312;2022-12-07T07:57:05;93580.25;;;10.11;58.82
20037;BME280;10179;42.640;23.312;2022-12-07T07:59:31;93607.03;;;10.32;58.60
20037;BME280;10179;42.640;23.312;2022-12-07T08:01:56;93614.69;;;10.33;58.65
20037;BME280;10179;42.640;23.312;2022-12-07T08:04:21;93612.75;;;10.29;58.13
20037;BME280;10179;42.640;23.312;2022-12-07T08:06:47;93524.53;;;9.67;58.22
20037;BME280;10179;42.640;23.312;2022-12-07T08:09:12;93608.75;;;10.26;58.26
20037;BME280;10179;42.640;23.312;2022-12-07T08:11:38;93618.78;;;10.29;58.27
20037;BME280;10179;42.640;23.312;2022-12-07T08:14:03;93583.09;;;10.10;58.15
20037;BME280;10179;42.640;23.312;2022-12-07T08:16:29;93482.19;;;9.52;57.92
20037;BME280;10179;42.640;23.312;2022-12-07T08:18:54;93609.44;;;10.33;57.86
20037;BME280;10179;42.640;23.312;2022-12-07T08:21:20;93612.28;;;10.32;57.97
20037;BME280;10179;42.640;23.312;2022-12-07T08:23:45;93615.25;;;10.35;58.28
20037;BME280;10179;42.640;23.312;2022-12-07T08:26:14;93599.75;;;10.34;58.19
20037;BME280;10179;42.640;23.312;2022-12-07T08:28:40;93613.25;;;10.49;58.20
20037;BME280;10179;42.640;23.312;2022-12-07T08:31:10;93583.56;;;10.37;58.26
20037;BME280;10179;42.640;23.312;2022-12-07T08:33:36;93591.69;;;10.47;57.93
20037;BME280;10179;42.640;23.312;2022-12-07T08:36:10;93555.81;;;10.29;57.64
20037;BME280;10179;42.640;23.312;2022-12-07T08:38:37;93609.38;;;10.63;57.64
20037;BME280;10179;42.640;23.312;2022-12-07T08:41:03;93645.72;;;10.66;57.58
20037;BME280;10179;42.640;23.312;2022-12-07T08:43:28;93613.41;;;10.66;57.24
20037;BME280;10179;42.640;23.312;2022-12-07T08:46:05;93411.28;;;9.47;57.26
20037;BME280;10179;42.640;23.312;2022-12-07T08:48:32;93598.44;;;10.66;57.16
20037;BME280;10179;42.640;23.312;2022-12-07T08:50:58;93554.22;;;10.40;57.16
20037;BME280;10179;42.640;23.312;2022-12-07T08:53:23;93578.00;;;10.57;56.74
20037;BME280;10179;42.640;23.312;2022-12-07T08:55:49;93461.44;;;9.80;56.70
20037;BME280;10179;42.640;23.312;2022-12-07T08:58:15;93559.72;;;10.50;56.99
20037;BME280;10179;42.640;23.312;2022-12-07T09:00:40;93498.56;;;10.19;57.04
20037;BME280;10179;42.640;23.312;2022-12-07T09:03:06;93547.16;;;10.52;56.96
20037;BME280;10179;42.640;23.312;2022-12-07T09:05:32;93489.56;;;10.15;56.73
20037;BME280;10179;42.640;23.312;2022-12-07T09:08:00;93538.94;;;10.48;56.64
20037;BME280;10179;42.640;23.312;2022-12-07T09:10:27;93433.41;;;9.51;57.01
20037;BME280;10179;42.640;23.312;2022-12-07T09:12:52;93358.59;;;9.37;56.93
20037;BME280;10179;42.640;23.312;2022-12-07T09:15:18;93562.59;;;10.84;56.93
20037;BME280;10179;42.640;23.312;2022-12-07T09:17:43;93546.50;;;10.80;57.01
20037;BME280;10179;42.640;23.312;2022-12-07T09:20:09;93534.94;;;10.46;56.92
20037;BME280;10179;42.640;23.312;2022-12-07T09:22:34;93557.13;;;10.97;56.97
20037;BME280;10179;42.640;23.312;2022-12-07T09:25:00;93531.06;;;10.84;56.85
20037;BME280;10179;42.640;23.312;2022-12-07T09:27:26;93569.44;;;11.08;56.59
20037;BME280;10179;42.640;23.312;2022-12-07T09:29:52;93567.84;;;11.07;56.58
20037;BME280;10179;42.640;23.312;2022-12-07T09:32:18;93576.31;;;11.09;56.52
20037;BME280;10179;42.640;23.312;2022-12-07T09:34:43;93534.97;;;10.93;56.30
20037;BME280;10179;42.640;23.312;2022-12-07T09:37:09;93542.72;;;11.11;56.36
20037;BME280;10179;42.640;23.312;2022-12-07T09:39:37;93506.94;;;10.98;56.23
20037;BME280;10179;42.640;23.312;2022-12-07T09:42:04;93539.72;;;11.19;56.05
20037;BME280;10179;42.640;23.312;2022-12-07T09:44:30;93546.34;;;11.22;56.25
20037;BME280;10179;42.640;23.312;2022-12-07T09:46:55;93473.72;;;10.81;56.02
20037;BME280;10179;42.640;23.312;2022-12-07T09:49:23;93537.22;;;11.25;56.09
20037;BME280;10179;42.640;23.312;2022-12-07T09:54:26;93533.75;;;11.36;56.26
20037;BME280;10179;42.640;23.312;2022-12-07T09:56:53;93478.50;;;11.07;56.01
20037;BME280;10179;42.640;23.312;2022-12-07T09:59:19;93418.13;;;10.72;55.57
20037;BME280;10179;42.640;23.312;2022-12-07T10:01:49;93532.38;;;11.45;55.78
20037;BME280;10179;42.640;23.312;2022-12-07T10:04:18;93529.63;;;11.40;55.74
20037;BME280;10179;42.640;23.312;2022-12-07T10:06:44;93528.03;;;11.39;55.83
20037;BME280;10179;42.640;23.312;2022-12-07T10:09:12;93522.06;;;11.43;56.10
20037;BME280;10179;42.640;23.312;2022-12-07T10:12:00;93515.28;;;11.59;55.99
20037;BME280;10179;42.640;23.312;2022-12-07T10:14:29;93459.72;;;11.15;55.84
20037;BME280;10179;42.640;23.312;2022-12-07T10:16:55;93513.13;;;11.56;55.59
20037;BME280;10179;42.640;23.312;2022-12-07T10:19:32;93492.56;;;11.53;55.86
20037;BME280;10179;42.640;23.312;2022-12-07T10:22:09;93513.19;;;11.73;55.98
20037;BME280;10179;42.640;23.312;2022-12-07T10:24:35;93510.97;;;11.82;55.61
20037;BME280;10179;42.640;23.312;2022-12-07T10:27:05;93449.91;;;11.51;55.48
20037;BME280;10179;42.640;23.312;2022-12-07T10:29:48;93474.13;;;11.82;55.38
20037;BME280;10179;42.640;23.312;2022-12-07T10:34:40;93473.06;;;11.94;55.20
20037;BME280;10179;42.640;23.312;2022-12-07T10:51:27;93451.06;;;12.34;55.46
20037;BME280;10179;42.640;23.312;2022-12-07T10:54:16;93458.66;;;12.48;55.23
20037;BME280;10179;42.640;23.312;2022-12-07T11:05:32;93321.72;;;11.92;54.82
20037;BME280;10179;42.640;23.312;2022-12-07T11:10:54;93453.41;;;12.86;53.83
20037;BME280;10179;42.640;23.312;2022-12-07T11:13:22;93446.91;;;12.94;53.08
20037;BME280;10179;42.640;23.312;2022-12-07T11:27:23;93429.59;;;13.42;51.43
20037;BME280;10179;42.640;23.312;2022-12-07T11:30:06;93424.03;;;13.44;50.97
20037;BME280;10179;42.640;23.312;2022-12-07T11:32:49;93418.53;;;13.45;50.51
20037;BME280;10179;42.640;23.312;2022-12-07T11:37:55;93413.31;;;13.50;50.76
20037;BME280;10179;42.640;23.312;2022-12-07T11:40:29;93418.16;;;13.58;50.29
20037;BME280;10179;42.640;23.312;2022-12-07T11:43:04;93398.53;;;13.49;50.40
20037;BME280;10179;42.640;23.312;2022-12-07T11:45:34;93398.03;;;13.52;50.31
20037;BME280;10179;42.640;23.312;2022-12-07T11:48:02;93405.00;;;13.64;49.72
20037;BME280;10179;42.640;23.312;2022-12-07T12:06:30;93383.59;;;13.87;48.64
20037;BME280;10179;42.640;23.312;2022-12-07T12:11:52;93302.38;;;13.35;48.52
20037;BME280;10179;42.640;23.312;2022-12-07T12:14:35;93378.09;;;13.94;48.21
20037;BME280;10179;42.640;23.312;2022-12-07T12:19:59;93371.53;;;14.01;47.98
20037;BME280;10179;42.640;23.312;2022-12-07T12:23:09;93366.63;;;14.15;47.50
20037;BME280;10179;42.640;23.312;2022-12-07T12:25:22;93017.75;;;11.67;47.92
20037;BME280;10179;42.640;23.312;2022-12-07T12:27:50;93366.94;;;13.87;48.09
20037;BME280;10179;42.640;23.312;2022-12-07T12:33:12;93347.16;;;13.89;47.99
20037;BME280;10179;42.640;23.312;2022-12-07T12:35:39;93346.53;;;13.77;48.07
20037;BME280;10179;42.640;23.312;2022-12-07T12:38:34;93335.19;;;13.76;47.97
20037;BME280;10179;42.640;23.312;2022-12-07T12:44:01;93355.19;;;13.72;48.11
20037;BME280;10179;42.640;23.312;2022-12-07T12:51:58;93327.41;;;13.65;48.08
20037;BME280;10179;42.640;23.312;2022-12-07T12:54:27;93346.63;;;13.87;48.25
20037;BME280;10179;42.640;23.312;2022-12-07T12:59:31;93234.78;;;13.29;48.16
20037;BME280;10179;42.640;23.312;2022-12-07T13:05:02;93334.59;;;14.06;47.66
20037;BME280;10179;42.640;23.312;2022-12-07T13:20:58;93340.59;;;13.97;47.31
20037;BME280;10179;42.640;23.312;2022-12-07T13:28:37;93323.81;;;13.76;47.35
20037;BME280;10179;42.640;23.312;2022-12-07T13:31:32;93356.53;;;14.07;47.54
20037;BME280;10179;42.640;23.312;2022-12-07T13:33:59;93326.09;;;13.94;47.26
20037;BME280;10179;42.640;23.312;2022-12-07T13:36:29;93244.38;;;13.40;47.21
20037;BME280;10179;42.640;23.312;2022-12-07T13:39:20;93266.19;;;13.63;47.18
20037;BME280;10179;42.640;23.312;2022-12-07T13:41:55;93324.31;;;14.10;47.03
20037;BME280;10179;42.640;23.312;2022-12-07T13:44:23;93347.84;;;14.12;46.95
20037;BME280;10179;42.640;23.312;2022-12-07T13:46:54;93346.25;;;14.11;47.04
20037;BME280;10179;42.640;23.312;2022-12-07T13:49:27;93229.09;;;13.42;47.11
20037;BME280;10179;42.640;23.312;2022-12-07T13:51:54;93339.88;;;14.06;47.00
20037;BME280;10179;42.640;23.312;2022-12-07T13:54:21;93276.25;;;13.66;47.14
20037;BME280;10179;42.640;23.312;2022-12-07T13:56:50;93326.66;;;14.01;47.19
20037;BME280;10179;42.640;23.312;2022-12-07T13:59:22;93322.97;;;14.02;47.40
20037;BME280;10179;42.640;23.312;2022-12-07T14:01:50;93312.31;;;13.92;47.43
20037;BME280;10179;42.640;23.312;2022-12-07T14:04:32;93331.47;;;14.09;47.43
20037;BME280;10179;42.640;23.312;2022-12-07T14:06:58;93331.50;;;14.15;47.29
20037;BME280;10179;42.640;23.312;2022-12-07T14:09:26;93332.31;;;14.15;47.29
20037;BME280;10179;42.640;23.312;2022-12-07T14:11:53;93339.47;;;14.25;47.24
20037;BME280;10179;42.640;23.312;2022-12-07T14:14:22;93317.25;;;14.21;47.12
20037;BME280;10179;42.640;23.312;2022-12-07T14:16:58;93336.66;;;14.42;47.08
20037;BME280;10179;42.640;23.312;2022-12-07T14:22:15;93320.41;;;14.18;46.88
20037;BME280;10179;42.640;23.312;2022-12-07T14:24:43;93309.81;;;14.13;46.91
20037;BME280;10179;42.640;23.312;2022-12-07T14:27:22;93351.44;;;14.38;47.12
20037;BME280;10179;42.640;23.312;2022-12-07T14:29:51;93358.78;;;14.25;47.22
20037;BME280;10179;42.640;23.312;2022-12-07T14:32:27;93337.94;;;14.29;47.37
20037;BME280;10179;42.640;23.312;2022-12-07T14:35:12;93315.09;;;14.13;47.42
20037;BME280;10179;42.640;23.312;2022-12-07T14:37:39;93294.63;;;13.88;47.41
20037;BME280;10179;42.640;23.312;2022-12-07T14:40:06;93353.66;;;14.14;47.19
20037;BME280;10179;42.640;23.312;2022-12-07T14:42:33;93187.59;;;13.00;47.42
20037;BME280;10179;42.640;23.312;2022-12-07T14:44:59;93226.88;;;13.29;47.42
20037;BME280;10179;42.640;23.312;2022-12-07T14:47:26;93322.50;;;13.78;47.61
20037;BME280;10179;42.640;23.312;2022-12-07T14:49:52;93343.13;;;13.81;47.87
20037;BME280;10179;42.640;23.312;2022-12-07T14:52:21;93326.41;;;13.71;48.17
20037;BME280;10179;42.640;23.312;2022-12-07T14:54:48;93339.66;;;13.76;48.23
20037;BME280;10179;42.640;23.312;2022-12-07T14:57:13;93348.63;;;13.75;48.19
20037;BME280;10179;42.640;23.312;2022-12-07T14:59:39;93344.94;;;13.76;48.31
20037;BME280;10179;42.640;23.312;2022-12-07T15:02:06;93343.34;;;13.75;48.24
20037;BME280;10179;42.640;23.312;2022-12-07T15:04:31;93357.59;;;13.74;48.28
20037;BME280;10179;42.640;23.312;2022-12-07T15:06:59;93371.25;;;13.66;48.03
20037;BME280;10179;42.640;23.312;2022-12-07T15:09:25;93359.06;;;13.59;48.48
20037;BME280;10179;42.640;23.312;2022-12-07T15:11:50;93327.97;;;13.34;48.65
20037;BME280;10179;42.640;23.312;2022-12-07T15:14:16;93360.31;;;13.52;48.68
20037;BME280;10179;42.640;23.312;2022-12-07T15:16:42;93329.22;;;13.27;48.61
20037;BME280;10179;42.640;23.312;2022-12-07T15:19:13;93339.66;;;13.22;48.66